createdAt,value
2022-09-14T00:02:08.453Z,4.97
2022-09-14T00:07:10.383Z,5.75
2022-09-14T00:12:11.962Z,5.38
2022-09-14T00:17:13.806Z,6.88
2022-09-14T00:22:15.378Z,7.25
2022-09-14T00:27:17.144Z,6.30
2022-09-14T00:32:19.057Z,6.63
2022-09-14T00:37:20.699Z,6.65
2022-09-14T00:42:22.245Z,6.40
2022-09-14T00:47:24.217Z,6.28
2022-09-14T00:52:30.297Z,6.68
2022-09-14T00:57:40.526Z,5.88
2022-09-14T01:02:42.382Z,6.07
2022-09-14T01:07:58.434Z,5.78
2022-09-14T01:13:29.446Z,7.07
2022-09-14T01:18:56.611Z,6.40
2022-09-14T01:24:21.903Z,7.45
2022-09-14T01:29:50.022Z,6.43
2022-09-14T01:35:15.233Z,6.97
2022-09-14T01:40:43.495Z,7.15
2022-09-14T01:45:52.814Z,7.25
2022-09-14T01:50:58.371Z,6.53
2022-09-14T01:56:20.389Z,5.45
2022-09-14T02:01:28.025Z,6.07
2022-09-14T02:06:40.600Z,6.35
2022-09-14T02:11:42.458Z,6.65
2022-09-14T02:16:46.260Z,6.60
2022-09-14T02:21:48.076Z,7.22
2022-09-14T02:26:52.059Z,6.93
2022-09-14T02:31:59.346Z,7.20
2022-09-14T02:37:12.234Z,6.85
2022-09-14T02:42:13.726Z,6.55
2022-09-14T02:47:18.234Z,7.15
2022-09-14T02:52:24.500Z,6.22
2022-09-14T02:57:26.156Z,5.20
2022-09-14T03:02:27.698Z,5.63
2022-09-14T03:07:29.271Z,6.60
2022-09-14T03:12:30.876Z,7.65
2022-09-14T03:17:32.740Z,6.25
2022-09-14T03:22:34.468Z,5.53
2022-09-14T03:27:36.049Z,5.55
2022-09-14T03:32:38.283Z,5.85
2022-09-14T03:37:41.811Z,5.57
2022-09-14T03:42:48.468Z,6.70
2022-09-14T03:52:51.770Z,5.82
2022-09-14T03:57:54.694Z,6.05
2022-09-14T04:02:56.498Z,5.85
2022-09-14T04:07:58.124Z,5.93
2022-09-14T04:13:00.112Z,6.38
2022-09-14T04:18:01.645Z,7.88
2022-09-14T04:23:03.228Z,5.55
2022-09-14T04:28:19.629Z,5.65
2022-09-14T04:33:21.993Z,5.82
2022-09-14T04:38:23.953Z,5.70
2022-09-14T04:43:26.933Z,6.18
2022-09-14T04:48:29.245Z,6.03
2022-09-14T04:53:33.641Z,8.52
2022-09-14T04:58:39.460Z,5.75
2022-09-14T05:03:41.899Z,6.40
2022-09-14T05:08:44.237Z,6.97
2022-09-14T05:13:49.712Z,6.97
2022-09-14T05:18:54.667Z,5.93
2022-09-14T05:23:58.559Z,5.20
2022-09-14T05:29:01.864Z,9.70
2022-09-14T05:34:03.481Z,5.80
2022-09-14T05:39:06.162Z,5.57
2022-09-14T05:44:07.820Z,6.15
2022-09-14T05:49:09.444Z,7.10
2022-09-14T05:54:12.172Z,7.05
2022-09-14T05:59:13.904Z,6.13
2022-09-14T06:04:15.597Z,6.85
2022-09-14T06:09:17.181Z,6.50
2022-09-14T06:14:20.805Z,7.18
2022-09-14T06:19:22.333Z,6.88
2022-09-14T06:24:23.846Z,6.10
2022-09-14T06:29:26.145Z,7.07
2022-09-14T06:34:27.921Z,7.70
2022-09-14T06:39:29.619Z,6.90
2022-09-14T06:44:32.618Z,7.45
2022-09-14T06:49:34.370Z,8.13
2022-09-14T06:54:35.978Z,6.60
2022-09-14T06:59:37.507Z,8.20
2022-09-14T07:04:39.194Z,6.20
2022-09-14T07:09:41.029Z,7.68
2022-09-14T07:14:42.566Z,6.93
2022-09-14T07:19:44.085Z,10.68
2022-09-14T07:24:45.611Z,7.80
2022-09-14T07:29:47.452Z,7.50
2022-09-14T07:34:49.162Z,9.40
2022-09-14T07:39:50.903Z,10.75
2022-09-14T07:44:52.609Z,10.25
2022-09-14T07:49:54.233Z,9.77
2022-09-14T07:54:56.153Z,9.40
2022-09-14T07:59:58.498Z,9.15
2022-09-14T08:05:00.099Z,9.93
2022-09-14T08:10:02.164Z,11.27
2022-09-14T08:15:04.936Z,12.20
2022-09-14T08:20:07.164Z,13.13
2022-09-14T08:25:09.338Z,13.75
2022-09-14T08:30:13.386Z,12.00
2022-09-14T08:35:14.915Z,13.95
2022-09-14T08:40:18.111Z,14.40
2022-09-14T08:45:19.747Z,13.70
2022-09-14T08:50:22.066Z,14.13
2022-09-14T08:55:23.524Z,16.08
2022-09-14T09:00:34.660Z,15.68
2022-09-14T09:05:46.956Z,15.43
2022-09-14T09:10:52.265Z,16.10
2022-09-14T09:15:58.101Z,12.95
2022-09-14T09:21:05.829Z,17.60
2022-09-14T09:26:16.819Z,15.18
2022-09-14T09:31:23.140Z,15.98
2022-09-14T09:36:46.861Z,17.10
2022-09-14T09:41:56.416Z,16.30
2022-09-14T09:47:01.024Z,14.48
2022-09-14T09:52:09.761Z,16.25
2022-09-14T09:57:23.740Z,17.27
2022-09-14T10:02:31.236Z,16.50
2022-09-14T10:07:39.800Z,18.30
2022-09-14T10:12:47.939Z,15.70
2022-09-14T10:17:57.006Z,17.30
2022-09-14T10:23:18.610Z,18.92
2022-09-14T10:28:32.682Z,18.35
2022-09-14T10:33:35.316Z,19.98
2022-09-14T10:38:45.916Z,20.00
2022-09-14T10:44:02.706Z,20.02
2022-09-14T10:49:18.341Z,20.25
2022-09-14T10:54:32.580Z,21.70
2022-09-14T11:00:00.237Z,21.08
2022-09-14T11:05:40.417Z,21.85
2022-09-14T11:10:47.068Z,21.85
2022-09-14T11:16:10.349Z,18.10
2022-09-14T11:21:38.038Z,21.23
2022-09-14T11:27:04.728Z,21.65
2022-09-14T11:32:27.503Z,14.98
2022-09-14T11:37:50.072Z,18.73
2022-09-14T11:43:09.228Z,16.52
2022-09-14T11:48:42.312Z,17.02
2022-09-14T11:53:46.268Z,19.23
2022-09-14T11:58:47.970Z,16.80
2022-09-14T12:03:54.496Z,20.08
2022-09-14T12:09:16.544Z,19.80
2022-09-14T12:14:29.753Z,22.08
2022-09-14T12:19:32.131Z,19.67
2022-09-14T12:24:39.833Z,18.50
2022-09-14T12:29:41.483Z,20.27
2022-09-14T12:34:43.097Z,19.08
2022-09-14T12:40:31.406Z,21.48
2022-09-14T12:45:51.698Z,20.30
2022-09-14T12:50:54.749Z,20.65
2022-09-14T12:56:06.993Z,20.77
2022-09-14T13:01:14.825Z,23.45
2022-09-14T13:06:18.096Z,23.27
2022-09-14T13:11:38.810Z,22.58
2022-09-14T13:16:44.874Z,23.23
2022-09-14T13:21:49.779Z,21.50
2022-09-14T13:26:52.259Z,21.77
2022-09-14T13:31:59.701Z,25.02
2022-09-14T13:37:06.300Z,22.75
2022-09-14T13:42:09.387Z,24.50
2022-09-14T13:47:17.158Z,24.27
2022-09-14T13:52:38.561Z,23.30
2022-09-14T13:58:07.627Z,25.38
2022-09-14T14:03:24.520Z,21.58
2022-09-14T14:08:44.119Z,22.30
2022-09-14T14:13:45.724Z,18.67
2022-09-14T14:18:58.155Z,18.88
2022-09-14T14:24:28.105Z,16.25
2022-09-14T14:29:29.651Z,17.33
2022-09-14T14:34:31.822Z,18.55
2022-09-14T14:39:33.408Z,17.83
2022-09-14T14:44:35.058Z,17.13
2022-09-14T14:49:36.938Z,15.00
2022-09-14T14:54:40.994Z,15.15
2022-09-14T14:59:42.674Z,14.77
2022-09-14T15:04:44.252Z,14.85
2022-09-14T15:09:45.826Z,13.20
2022-09-14T15:14:47.355Z,17.85
2022-09-14T15:19:49.059Z,17.90
2022-09-14T15:24:50.603Z,17.70
2022-09-14T15:29:52.249Z,16.02
2022-09-14T15:34:53.933Z,16.45
2022-09-14T15:39:55.569Z,14.75
2022-09-14T15:44:57.212Z,14.65
2022-09-14T15:49:59.867Z,13.70
2022-09-14T15:55:01.541Z,14.07
2022-09-14T16:00:08.029Z,14.77
2022-09-14T16:05:16.182Z,16.33
2022-09-14T16:10:17.849Z,15.02
2022-09-14T16:15:19.554Z,17.00
2022-09-14T16:20:21.537Z,18.58
2022-09-14T16:25:23.105Z,15.73
2022-09-14T16:30:24.647Z,17.35
2022-09-14T16:35:26.266Z,18.65
2022-09-14T16:40:27.966Z,19.15
2022-09-14T16:45:29.778Z,17.80
2022-09-14T16:50:31.338Z,17.88
2022-09-14T16:55:32.912Z,16.95
2022-09-14T17:00:35.415Z,15.02
2022-09-14T17:05:37.024Z,14.20
2022-09-14T17:10:38.585Z,16.85
2022-09-14T17:15:40.106Z,15.18
2022-09-14T17:20:54.258Z,17.65
2022-09-14T17:25:56.452Z,13.98
2022-09-14T17:30:59.871Z,14.85
2022-09-14T17:36:03.534Z,15.35
2022-09-14T17:41:17.587Z,15.68
2022-09-14T17:46:21.624Z,15.45
2022-09-14T17:51:25.332Z,13.90
2022-09-14T17:56:28.844Z,15.13
2022-09-14T18:01:31.022Z,15.95
2022-09-14T18:06:38.400Z,15.63
2022-09-14T18:11:40.645Z,13.82
2022-09-14T18:16:44.150Z,14.88
2022-09-14T18:21:50.208Z,13.50
2022-09-14T18:26:53.288Z,15.57
2022-09-14T18:31:54.933Z,16.05
2022-09-14T18:36:56.652Z,15.20
2022-09-14T18:41:58.959Z,15.02
2022-09-14T18:47:00.791Z,14.05
2022-09-14T18:52:03.002Z,12.35
2022-09-14T18:57:04.719Z,12.85
2022-09-14T19:02:06.419Z,12.70
2022-09-14T19:07:08.574Z,11.40
2022-09-14T19:17:34.291Z,8.85
2022-09-14T19:22:35.928Z,10.00
2022-09-14T19:27:37.584Z,9.32
2022-09-14T19:32:39.240Z,10.85
2022-09-14T19:37:40.811Z,10.07
2022-09-14T19:42:42.408Z,10.10
2022-09-14T19:47:44.170Z,9.73
2022-09-14T19:52:45.872Z,9.00
2022-09-14T19:57:48.289Z,9.85
2022-09-14T20:02:49.933Z,10.55
2022-09-14T20:07:51.549Z,9.88
2022-09-14T20:12:54.329Z,11.18
2022-09-14T20:17:56.189Z,10.93
2022-09-14T20:22:57.688Z,11.25
2022-09-14T20:27:59.268Z,13.48
2022-09-14T20:33:00.885Z,11.90
2022-09-14T20:38:02.399Z,11.18
2022-09-14T20:43:05.163Z,12.50
2022-09-14T20:48:06.737Z,10.02
2022-09-14T20:53:08.289Z,10.60
2022-09-14T20:58:09.991Z,10.55
2022-09-14T21:03:12.745Z,10.98
2022-09-14T21:08:14.372Z,9.88
2022-09-14T21:13:16.010Z,7.80
2022-09-14T21:18:20.736Z,6.32
2022-09-14T21:23:22.411Z,5.40
2022-09-14T21:28:24.285Z,5.70
2022-09-14T21:33:25.752Z,5.10
2022-09-14T21:38:27.251Z,4.13
2022-09-14T21:43:29.329Z,3.40
2022-09-14T21:48:31.083Z,2.63
2022-09-14T21:53:33.429Z,2.33
2022-09-14T21:58:34.936Z,2.08
2022-09-14T22:03:37.039Z,3.28
2022-09-14T22:08:39.243Z,3.00
2022-09-14T22:13:41.238Z,3.03
2022-09-14T22:18:48.977Z,3.42
2022-09-14T22:23:57.517Z,4.03
2022-09-14T22:28:59.641Z,4.35
2022-09-14T22:34:01.275Z,3.90
2022-09-14T22:39:04.665Z,4.90
2022-09-14T22:44:07.441Z,5.82
2022-09-14T22:49:09.769Z,5.32
2022-09-14T22:54:11.392Z,5.53
2022-09-14T22:59:13.051Z,5.05
2022-09-14T23:04:14.700Z,5.07
2022-09-14T23:09:18.869Z,4.97
2022-09-14T23:14:20.458Z,4.70
2022-09-14T23:19:22.104Z,5.18
2022-09-14T23:24:23.796Z,5.53
2022-09-14T23:29:25.542Z,6.10
2022-09-14T23:34:27.206Z,6.60
2022-09-14T23:39:29.101Z,7.63
2022-09-14T23:44:30.641Z,6.97
2022-09-14T23:49:32.167Z,7.72
2022-09-14T23:54:33.772Z,7.75
2022-09-14T23:59:35.443Z,6.50
